sensor_id;sensor_type;location;lat;lon;timestamp;temperature;humidity
13665;DHT22;6905;50.770;6.730;2024-02-21T00:01:37;8.90;99.90
13665;DHT22;6905;50.770;6.730;2024-02-21T00:04:12;8.90;99.90
13665;DHT22;6905;50.770;6.730;2024-02-21T00:06:42;8.90;99.90
13665;DHT22;6905;50.770;6.730;2024-02-21T00:09:11;8.90;99.90
13665;DHT22;6905;50.770;6.730;2024-02-21T00:11:52;8.90;99.90
13665;DHT22;6905;50.770;6.730;2024-02-21T00:14:26;9.00;99.90
13665;DHT22;6905;50.770;6.730;2024-02-21T00:23:19;9.00;99.90
13665;DHT22;6905;50.770;6.730;2024-02-21T00:25:46;9.00;99.90
13665;DHT22;6905;50.770;6.730;2024-02-21T00:31:03;9.00;99.90
13665;DHT22;6905;50.770;6.730;2024-02-21T00:33:44;9.00;99.90
13665;DHT22;6905;50.770;6.730;2024-02-21T00:36:11;9.00;99.90
13665;DHT22;6905;50.770;6.730;2024-02-21T00:38:42;9.00;99.90
13665;DHT22;6905;50.770;6.730;2024-02-21T00:41:10;9.00;99.90
13665;DHT22;6905;50.770;6.730;2024-02-21T00:43:46;9.00;99.90
13665;DHT22;6905;50.770;6.730;2024-02-21T00:46:15;9.00;99.90
13665;DHT22;6905;50.770;6.730;2024-02-21T00:48:42;8.90;99.90
13665;DHT22;6905;50.770;6.730;2024-02-21T00:51:14;8.90;99.90
13665;DHT22;6905;50.770;6.730;2024-02-21T00:53:46;8.90;99.90
13665;DHT22;6905;50.770;6.730;2024-02-21T00:56:18;8.90;99.90
13665;DHT22;6905;50.770;6.730;2024-02-21T00:58:47;8.80;99.90
13665;DHT22;6905;50.770;6.730;2024-02-21T01:01:21;8.80;99.90
13665;DHT22;6905;50.770;6.730;2024-02-21T01:03:52;8.90;99.90
13665;DHT22;6905;50.770;6.730;2024-02-21T01:06:20;8.80;99.90
13665;DHT22;6905;50.770;6.730;2024-02-21T01:08:54;8.80;99.90
13665;DHT22;6905;50.770;6.730;2024-02-21T01:11:27;8.80;99.90
13665;DHT22;6905;50.770;6.730;2024-02-21T01:13:56;8.80;99.90
13665;DHT22;6905;50.770;6.730;2024-02-21T01:16:26;8.80;99.90
13665;DHT22;6905;50.770;6.730;2024-02-21T01:18:53;8.70;99.90
13665;DHT22;6905;50.770;6.730;2024-02-21T01:21:24;8.70;99.90
13665;DHT22;6905;50.770;6.730;2024-02-21T01:26:44;8.70;99.90
13665;DHT22;6905;50.770;6.730;2024-02-21T01:29:16;8.70;99.90
13665;DHT22;6905;50.770;6.730;2024-02-21T01:31:43;8.70;99.90
13665;DHT22;6905;50.770;6.730;2024-02-21T01:34:14;8.60;99.90
13665;DHT22;6905;50.770;6.730;2024-02-21T01:36:47;8.70;99.90
13665;DHT22;6905;50.770;6.730;2024-02-21T01:42:09;8.60;99.90
13665;DHT22;6905;50.770;6.730;2024-02-21T01:44:45;8.60;99.90
13665;DHT22;6905;50.770;6.730;2024-02-21T01:47:15;8.60;99.90
13665;DHT22;6905;50.770;6.730;2024-02-21T01:49:45;8.60;99.90
13665;DHT22;6905;50.770;6.730;2024-02-21T01:52:14;8.60;99.90
13665;DHT22;6905;50.770;6.730;2024-02-21T01:54:47;8.60;99.90
13665;DHT22;6905;50.770;6.730;2024-02-21T01:57:23;8.60;99.90
13665;DHT22;6905;50.770;6.730;2024-02-21T01:59:52;8.60;99.90
13665;DHT22;6905;50.770;6.730;2024-02-21T02:02:21;8.60;99.90
13665;DHT22;6905;50.770;6.730;2024-02-21T02:04:50;8.60;99.90
13665;DHT22;6905;50.770;6.730;2024-02-21T02:07:24;8.60;99.90
13665;DHT22;6905;50.770;6.730;2024-02-21T02:09:51;8.60;99.90
13665;DHT22;6905;50.770;6.730;2024-02-21T02:12:18;8.60;99.90
13665;DHT22;6905;50.770;6.730;2024-02-21T02:14:48;8.60;99.90
13665;DHT22;6905;50.770;6.730;2024-02-21T02:17:25;8.70;99.90
13665;DHT22;6905;50.770;6.730;2024-02-21T02:22:36;8.70;99.90
13665;DHT22;6905;50.770;6.730;2024-02-21T02:25:21;8.70;99.90
13665;DHT22;6905;50.770;6.730;2024-02-21T02:27:49;8.70;99.90
13665;DHT22;6905;50.770;6.730;2024-02-21T02:30:20;8.60;99.90
13665;DHT22;6905;50.770;6.730;2024-02-21T02:32:59;8.60;99.90
13665;DHT22;6905;50.770;6.730;2024-02-21T02:35:28;8.60;99.90
13665;DHT22;6905;50.770;6.730;2024-02-21T02:37:57;8.60;99.90
13665;DHT22;6905;50.770;6.730;2024-02-21T02:40:33;8.70;99.90
13665;DHT22;6905;50.770;6.730;2024-02-21T02:43:04;8.60;99.90
13665;DHT22;6905;50.770;6.730;2024-02-21T02:45:36;8.60;99.90
13665;DHT22;6905;50.770;6.730;2024-02-21T02:48:06;8.60;99.90
13665;DHT22;6905;50.770;6.730;2024-02-21T02:50:35;8.60;99.90
13665;DHT22;6905;50.770;6.730;2024-02-21T02:53:04;8.70;99.90
13665;DHT22;6905;50.770;6.730;2024-02-21T02:55:37;8.70;99.90
13665;DHT22;6905;50.770;6.730;2024-02-21T02:58:07;8.60;99.90
13665;DHT22;6905;50.770;6.730;2024-02-21T03:00:35;8.70;99.90
13665;DHT22;6905;50.770;6.730;2024-02-21T03:03:07;8.60;99.90
13665;DHT22;6905;50.770;6.730;2024-02-21T03:05:47;8.60;99.90
13665;DHT22;6905;50.770;6.730;2024-02-21T03:08:16;8.60;99.90
13665;DHT22;6905;50.770;6.730;2024-02-21T03:10:47;8.60;99.90
13665;DHT22;6905;50.770;6.730;2024-02-21T03:13:14;8.60;99.90
13665;DHT22;6905;50.770;6.730;2024-02-21T03:15:41;8.50;99.90
13665;DHT22;6905;50.770;6.730;2024-02-21T03:18:11;8.50;99.90
13665;DHT22;6905;50.770;6.730;2024-02-21T03:20:38;8.50;99.90
13665;DHT22;6905;50.770;6.730;2024-02-21T03:23:05;8.40;99.90
13665;DHT22;6905;50.770;6.730;2024-02-21T03:25:32;8.40;99.90
13665;DHT22;6905;50.770;6.730;2024-02-21T03:28:01;8.40;99.90
13665;DHT22;6905;50.770;6.730;2024-02-21T03:30:31;8.40;99.90
13665;DHT22;6905;50.770;6.730;2024-02-21T03:33:01;8.30;99.90
13665;DHT22;6905;50.770;6.730;2024-02-21T03:35:30;8.30;99.90
13665;DHT22;6905;50.770;6.730;2024-02-21T03:38:00;8.30;99.90
13665;DHT22;6905;50.770;6.730;2024-02-21T03:40:29;8.30;99.90
13665;DHT22;6905;50.770;6.730;2024-02-21T03:42:56;8.20;99.90
13665;DHT22;6905;50.770;6.730;2024-02-21T03:45:28;8.20;99.90
13665;DHT22;6905;50.770;6.730;2024-02-21T03:47:55;8.20;99.90
13665;DHT22;6905;50.770;6.730;2024-02-21T03:50:22;8.20;99.90
13665;DHT22;6905;50.770;6.730;2024-02-21T03:52:56;8.10;99.90
13665;DHT22;6905;50.770;6.730;2024-02-21T03:55:23;8.10;99.90
13665;DHT22;6905;50.770;6.730;2024-02-21T03:57:53;8.10;99.90
13665;DHT22;6905;50.770;6.730;2024-02-21T04:00:20;8.10;99.90
13665;DHT22;6905;50.770;6.730;2024-02-21T04:02:50;8.10;99.90
13665;DHT22;6905;50.770;6.730;2024-02-21T04:05:18;8.00;99.90
13665;DHT22;6905;50.770;6.730;2024-02-21T04:07:46;8.00;99.90
13665;DHT22;6905;50.770;6.730;2024-02-21T04:10:16;8.00;99.90
13665;DHT22;6905;50.770;6.730;2024-02-21T04:12:53;8.00;99.90
13665;DHT22;6905;50.770;6.730;2024-02-21T04:15:22;8.00;99.90
13665;DHT22;6905;50.770;6.730;2024-02-21T04:17:56;8.00;99.90
13665;DHT22;6905;50.770;6.730;2024-02-21T04:45:16;8.00;99.90
13665;DHT22;6905;50.770;6.730;2024-02-21T04:47:47;8.10;99.90
13665;DHT22;6905;50.770;6.730;2024-02-21T04:50:32;8.10;99.90
13665;DHT22;6905;50.770;6.730;2024-02-21T04:53:16;8.10;99.90
13665;DHT22;6905;50.770;6.730;2024-02-21T04:55:55;8.10;99.90
13665;DHT22;6905;50.770;6.730;2024-02-21T04:58:40;8.10;99.90
13665;DHT22;6905;50.770;6.730;2024-02-21T05:01:30;8.10;99.90
13665;DHT22;6905;50.770;6.730;2024-02-21T05:04:23;8.10;99.90
13665;DHT22;6905;50.770;6.730;2024-02-21T05:07:37;8.20;99.90
13665;DHT22;6905;50.770;6.730;2024-02-21T05:10:40;8.20;99.90
13665;DHT22;6905;50.770;6.730;2024-02-21T05:13:37;8.20;99.90
13665;DHT22;6905;50.770;6.730;2024-02-21T05:31:12;8.20;99.90
13665;DHT22;6905;50.770;6.730;2024-02-21T05:33:56;8.20;99.90
13665;DHT22;6905;50.770;6.730;2024-02-21T05:37:58;8.20;99.90
13665;DHT22;6905;50.770;6.730;2024-02-21T05:39:49;8.20;99.90
13665;DHT22;6905;50.770;6.730;2024-02-21T05:42:31;8.20;99.90
13665;DHT22;6905;50.770;6.730;2024-02-21T05:47:45;8.30;99.90
13665;DHT22;6905;50.770;6.730;2024-02-21T05:50:18;8.30;99.90
13665;DHT22;6905;50.770;6.730;2024-02-21T05:52:51;8.30;99.90
13665;DHT22;6905;50.770;6.730;2024-02-21T05:55:20;8.30;99.90
13665;DHT22;6905;50.770;6.730;2024-02-21T05:57:47;8.30;99.90
13665;DHT22;6905;50.770;6.730;2024-02-21T06:00:16;8.30;99.90
13665;DHT22;6905;50.770;6.730;2024-02-21T06:02:45;8.30;99.90
13665;DHT22;6905;50.770;6.730;2024-02-21T06:07:57;8.30;99.90
13665;DHT22;6905;50.770;6.730;2024-02-21T06:10:30;8.30;99.90
13665;DHT22;6905;50.770;6.730;2024-02-21T06:13:04;8.30;99.90
13665;DHT22;6905;50.770;6.730;2024-02-21T06:15:37;8.40;99.90
13665;DHT22;6905;50.770;6.730;2024-02-21T06:18:16;8.40;99.90
13665;DHT22;6905;50.770;6.730;2024-02-21T06:20:46;8.40;99.90
13665;DHT22;6905;50.770;6.730;2024-02-21T06:23:16;8.40;99.90
13665;DHT22;6905;50.770;6.730;2024-02-21T06:25:46;8.40;99.90
13665;DHT22;6905;50.770;6.730;2024-02-21T06:28:17;8.50;99.90
13665;DHT22;6905;50.770;6.730;2024-02-21T06:30:48;8.50;99.90
13665;DHT22;6905;50.770;6.730;2024-02-21T06:33:21;8.50;99.90
13665;DHT22;6905;50.770;6.730;2024-02-21T06:35:50;8.50;99.90
13665;DHT22;6905;50.770;6.730;2024-02-21T06:38:22;8.50;99.90
13665;DHT22;6905;50.770;6.730;2024-02-21T06:40:51;8.50;99.90
13665;DHT22;6905;50.770;6.730;2024-02-21T06:46:33;8.40;99.90
13665;DHT22;6905;50.770;6.730;2024-02-21T06:52:16;8.40;99.90
13665;DHT22;6905;50.770;6.730;2024-02-21T06:55:04;8.40;99.90
13665;DHT22;6905;50.770;6.730;2024-02-21T06:57:38;8.40;99.90
13665;DHT22;6905;50.770;6.730;2024-02-21T07:00:06;8.40;99.90
13665;DHT22;6905;50.770;6.730;2024-02-21T07:02:34;8.40;99.90
13665;DHT22;6905;50.770;6.730;2024-02-21T07:05:08;8.30;99.90
13665;DHT22;6905;50.770;6.730;2024-02-21T07:07:40;8.30;99.90
13665;DHT22;6905;50.770;6.730;2024-02-21T07:10:26;8.30;99.90
13665;DHT22;6905;50.770;6.730;2024-02-21T07:12:56;8.30;99.90
13665;DHT22;6905;50.770;6.730;2024-02-21T07:15:24;8.30;99.90
13665;DHT22;6905;50.770;6.730;2024-02-21T07:17:55;8.30;99.90
13665;DHT22;6905;50.770;6.730;2024-02-21T07:20:27;8.30;99.90
13665;DHT22;6905;50.770;6.730;2024-02-21T07:25:49;8.30;99.90
13665;DHT22;6905;50.770;6.730;2024-02-21T07:29:02;8.30;99.90
13665;DHT22;6905;50.770;6.730;2024-02-21T07:31:38;8.30;99.90
13665;DHT22;6905;50.770;6.730;2024-02-21T07:34:06;8.20;99.90
13665;DHT22;6905;50.770;6.730;2024-02-21T07:36:37;8.30;99.90
13665;DHT22;6905;50.770;6.730;2024-02-21T07:39:11;8.30;99.90
13665;DHT22;6905;50.770;6.730;2024-02-21T07:41:49;8.30;99.90
13665;DHT22;6905;50.770;6.730;2024-02-21T07:44:20;8.30;99.90
13665;DHT22;6905;50.770;6.730;2024-02-21T07:46:50;8.30;99.90
13665;DHT22;6905;50.770;6.730;2024-02-21T07:49:20;8.40;99.90
13665;DHT22;6905;50.770;6.730;2024-02-21T07:51:51;8.40;99.90
13665;DHT22;6905;50.770;6.730;2024-02-21T07:54:19;8.40;99.90
13665;DHT22;6905;50.770;6.730;2024-02-21T07:56:50;8.40;99.90
13665;DHT22;6905;50.770;6.730;2024-02-21T07:59:21;8.40;99.90
13665;DHT22;6905;50.770;6.730;2024-02-21T08:01:51;8.50;99.90
13665;DHT22;6905;50.770;6.730;2024-02-21T08:04:23;8.50;99.90
13665;DHT22;6905;50.770;6.730;2024-02-21T08:06:52;8.50;99.90
13665;DHT22;6905;50.770;6.730;2024-02-21T08:09:31;8.50;99.90
13665;DHT22;6905;50.770;6.730;2024-02-21T08:12:00;8.60;99.90
13665;DHT22;6905;50.770;6.730;2024-02-21T08:14:35;8.60;99.90
13665;DHT22;6905;50.770;6.730;2024-02-21T08:17:02;8.70;99.90
13665;DHT22;6905;50.770;6.730;2024-02-21T08:19:32;8.60;99.90
13665;DHT22;6905;50.770;6.730;2024-02-21T08:22:04;8.70;99.90
13665;DHT22;6905;50.770;6.730;2024-02-21T08:24:48;8.70;99.90
13665;DHT22;6905;50.770;6.730;2024-02-21T08:27:19;8.70;99.90
13665;DHT22;6905;50.770;6.730;2024-02-21T08:29:48;8.70;99.90
13665;DHT22;6905;50.770;6.730;2024-02-21T08:32:16;8.80;99.90
13665;DHT22;6905;50.770;6.730;2024-02-21T08:34:43;8.80;99.90
13665;DHT22;6905;50.770;6.730;2024-02-21T08:37:10;8.90;99.90
13665;DHT22;6905;50.770;6.730;2024-02-21T08:39:49;8.90;99.90
13665;DHT22;6905;50.770;6.730;2024-02-21T08:45:00;8.90;99.90
13665;DHT22;6905;50.770;6.730;2024-02-21T08:47:31;9.00;99.90
13665;DHT22;6905;50.770;6.730;2024-02-21T08:50:07;9.00;99.90
13665;DHT22;6905;50.770;6.730;2024-02-21T08:52:44;9.10;99.90
13665;DHT22;6905;50.770;6.730;2024-02-21T08:55:31;9.20;99.90
13665;DHT22;6905;50.770;6.730;2024-02-21T08:58:00;9.20;99.90
13665;DHT22;6905;50.770;6.730;2024-02-21T09:00:31;9.30;99.90
13665;DHT22;6905;50.770;6.730;2024-02-21T09:02:59;9.30;99.90
13665;DHT22;6905;50.770;6.730;2024-02-21T09:05:26;9.30;99.90
13665;DHT22;6905;50.770;6.730;2024-02-21T09:07:53;9.30;99.90
13665;DHT22;6905;50.770;6.730;2024-02-21T09:10:21;9.30;99.90
13665;DHT22;6905;50.770;6.730;2024-02-21T09:12:50;9.40;99.90
13665;DHT22;6905;50.770;6.730;2024-02-21T09:15:18;9.40;99.90
13665;DHT22;6905;50.770;6.730;2024-02-21T09:17:58;9.50;99.90
13665;DHT22;6905;50.770;6.730;2024-02-21T09:20:27;9.50;99.90
13665;DHT22;6905;50.770;6.730;2024-02-21T09:22:57;9.50;99.90
13665;DHT22;6905;50.770;6.730;2024-02-21T09:25:24;9.60;99.90
13665;DHT22;6905;50.770;6.730;2024-02-21T09:27:53;9.60;99.90
13665;DHT22;6905;50.770;6.730;2024-02-21T09:30:21;9.70;99.90
13665;DHT22;6905;50.770;6.730;2024-02-21T09:32:55;9.70;99.90
13665;DHT22;6905;50.770;6.730;2024-02-21T09:35:28;9.70;99.90
13665;DHT22;6905;50.770;6.730;2024-02-21T09:38:01;9.70;99.90
13665;DHT22;6905;50.770;6.730;2024-02-21T09:40:29;9.70;99.90
13665;DHT22;6905;50.770;6.730;2024-02-21T09:43:04;9.80;99.90
13665;DHT22;6905;50.770;6.730;2024-02-21T09:45:35;9.80;99.90
13665;DHT22;6905;50.770;6.730;2024-02-21T09:48:08;9.80;99.90
13665;DHT22;6905;50.770;6.730;2024-02-21T09:50:43;9.80;99.90
13665;DHT22;6905;50.770;6.730;2024-02-21T09:53:11;9.90;99.90
13665;DHT22;6905;50.770;6.730;2024-02-21T09:55:43;9.90;99.90
13665;DHT22;6905;50.770;6.730;2024-02-21T09:58:19;9.90;99.90
13665;DHT22;6905;50.770;6.730;2024-02-21T10:01:00;9.90;99.90
13665;DHT22;6905;50.770;6.730;2024-02-21T10:03:29;9.90;99.90
13665;DHT22;6905;50.770;6.730;2024-02-21T10:06:07;10.00;99.90
13665;DHT22;6905;50.770;6.730;2024-02-21T10:08:36;10.00;99.90
13665;DHT22;6905;50.770;6.730;2024-02-21T10:11:04;10.00;99.90
13665;DHT22;6905;50.770;6.730;2024-02-21T10:13:48;10.00;99.90
13665;DHT22;6905;50.770;6.730;2024-02-21T10:19:06;10.10;99.90
13665;DHT22;6905;50.770;6.730;2024-02-21T10:21:40;10.10;99.90
13665;DHT22;6905;50.770;6.730;2024-02-21T14:52:43;11.70;99.90
13665;DHT22;6905;50.770;6.730;2024-02-21T15:01:02;11.50;99.90
13665;DHT22;6905;50.770;6.730;2024-02-21T15:03:41;11.40;99.90
13665;DHT22;6905;50.770;6.730;2024-02-21T15:06:30;11.30;99.90
13665;DHT22;6905;50.770;6.730;2024-02-21T15:09:19;11.30;99.90
13665;DHT22;6905;50.770;6.730;2024-02-21T15:11:48;11.20;99.90
13665;DHT22;6905;50.770;6.730;2024-02-21T15:14:30;11.20;99.90
13665;DHT22;6905;50.770;6.730;2024-02-21T15:17:13;11.20;99.90
13665;DHT22;6905;50.770;6.730;2024-02-21T15:19:43;11.20;99.90
13665;DHT22;6905;50.770;6.730;2024-02-21T15:22:32;11.10;99.90
13665;DHT22;6905;50.770;6.730;2024-02-21T15:25:31;11.10;99.90
13665;DHT22;6905;50.770;6.730;2024-02-21T15:28:12;11.10;99.90
13665;DHT22;6905;50.770;6.730;2024-02-21T15:30:56;11.00;99.90
13665;DHT22;6905;50.770;6.730;2024-02-21T15:33:41;11.00;99.90
13665;DHT22;6905;50.770;6.730;2024-02-21T15:39:15;10.90;99.90
13665;DHT22;6905;50.770;6.730;2024-02-21T15:42:15;10.90;99.90
13665;DHT22;6905;50.770;6.730;2024-02-21T15:44:57;10.90;99.90
13665;DHT22;6905;50.770;6.730;2024-02-21T15:47:37;10.80;99.90
13665;DHT22;6905;50.770;6.730;2024-02-21T15:50:46;10.80;99.90
13665;DHT22;6905;50.770;6.730;2024-02-21T15:53:12;10.80;99.90
13665;DHT22;6905;50.770;6.730;2024-02-21T15:55:51;10.70;99.90
13665;DHT22;6905;50.770;6.730;2024-02-21T15:58:40;10.70;99.90
13665;DHT22;6905;50.770;6.730;2024-02-21T16:01:09;10.70;99.90
13665;DHT22;6905;50.770;6.730;2024-02-21T16:03:43;10.60;99.90
13665;DHT22;6905;50.770;6.730;2024-02-21T16:09:22;10.60;99.90
13665;DHT22;6905;50.770;6.730;2024-02-21T16:12:13;10.50;99.90
13665;DHT22;6905;50.770;6.730;2024-02-21T16:15:07;10.50;99.90
13665;DHT22;6905;50.770;6.730;2024-02-21T16:17:51;10.40;99.90
13665;DHT22;6905;50.770;6.730;2024-02-21T16:20:31;10.40;99.90
13665;DHT22;6905;50.770;6.730;2024-02-21T16:23:05;10.30;99.90
13665;DHT22;6905;50.770;6.730;2024-02-21T16:25:42;10.30;99.90
13665;DHT22;6905;50.770;6.730;2024-02-21T16:28:17;10.30;99.90
13665;DHT22;6905;50.770;6.730;2024-02-21T16:30:51;10.30;99.90
13665;DHT22;6905;50.770;6.730;2024-02-21T16:36:08;10.20;99.90
13665;DHT22;6905;50.770;6.730;2024-02-21T16:38:52;10.20;99.90
13665;DHT22;6905;50.770;6.730;2024-02-21T16:41:23;10.20;99.90
13665;DHT22;6905;50.770;6.730;2024-02-21T16:43:57;10.20;99.90
13665;DHT22;6905;50.770;6.730;2024-02-21T16:46:27;10.20;99.90
13665;DHT22;6905;50.770;6.730;2024-02-21T16:49:15;10.20;99.90
13665;DHT22;6905;50.770;6.730;2024-02-21T16:51:48;10.10;99.90
13665;DHT22;6905;50.770;6.730;2024-02-21T16:57:01;10.10;99.90
13665;DHT22;6905;50.770;6.730;2024-02-21T17:02:41;10.00;99.90
13665;DHT22;6905;50.770;6.730;2024-02-21T17:05:28;10.00;99.90
13665;DHT22;6905;50.770;6.730;2024-02-21T17:07:55;10.00;99.90
13665;DHT22;6905;50.770;6.730;2024-02-21T17:10:33;9.90;99.90
13665;DHT22;6905;50.770;6.730;2024-02-21T17:16:22;9.90;99.90
13665;DHT22;6905;50.770;6.730;2024-02-21T17:21:37;9.90;99.90
13665;DHT22;6905;50.770;6.730;2024-02-21T17:24:23;9.90;99.90
13665;DHT22;6905;50.770;6.730;2024-02-21T17:26:59;9.90;99.90
13665;DHT22;6905;50.770;6.730;2024-02-21T17:29:39;9.90;99.90
13665;DHT22;6905;50.770;6.730;2024-02-21T17:32:43;9.90;99.90
13665;DHT22;6905;50.770;6.730;2024-02-21T17:41:38;9.90;99.90
13665;DHT22;6905;50.770;6.730;2024-02-21T17:47:13;9.90;99.90
13665;DHT22;6905;50.770;6.730;2024-02-21T17:54:22;9.80;99.90
13665;DHT22;6905;50.770;6.730;2024-02-21T17:56:09;9.90;99.90
13665;DHT22;6905;50.770;6.730;2024-02-21T17:58:45;9.90;99.90
13665;DHT22;6905;50.770;6.730;2024-02-21T18:01:15;9.90;99.90
13665;DHT22;6905;50.770;6.730;2024-02-21T18:10:28;9.80;99.90
13665;DHT22;6905;50.770;6.730;2024-02-21T18:13:03;9.80;99.90
13665;DHT22;6905;50.770;6.730;2024-02-21T18:15:39;9.80;99.90
13665;DHT22;6905;50.770;6.730;2024-02-21T18:18:19;9.80;99.90
13665;DHT22;6905;50.770;6.730;2024-02-21T18:21:00;9.70;99.90
13665;DHT22;6905;50.770;6.730;2024-02-21T18:23:29;9.70;99.90
13665;DHT22;6905;50.770;6.730;2024-02-21T18:26:00;9.70;99.90
13665;DHT22;6905;50.770;6.730;2024-02-21T18:28:29;9.60;99.90
13665;DHT22;6905;50.770;6.730;2024-02-21T18:30:58;9.60;99.90
13665;DHT22;6905;50.770;6.730;2024-02-21T21:18:11;9.00;99.90
13665;DHT22;6905;50.770;6.730;2024-02-21T21:20:42;9.00;99.90
13665;DHT22;6905;50.770;6.730;2024-02-21T21:23:09;9.00;99.90
13665;DHT22;6905;50.770;6.730;2024-02-21T21:25:36;9.00;99.90
13665;DHT22;6905;50.770;6.730;2024-02-21T21:28:19;8.90;99.90
13665;DHT22;6905;50.770;6.730;2024-02-21T21:30:54;9.00;99.90
13665;DHT22;6905;50.770;6.730;2024-02-21T21:33:36;9.00;99.90
13665;DHT22;6905;50.770;6.730;2024-02-21T21:36:13;9.00;99.90
13665;DHT22;6905;50.770;6.730;2024-02-21T21:38:45;9.00;99.90
13665;DHT22;6905;50.770;6.730;2024-02-21T21:41:19;9.00;99.90
13665;DHT22;6905;50.770;6.730;2024-02-21T21:44:08;9.00;99.90
13665;DHT22;6905;50.770;6.730;2024-02-21T21:46:39;9.00;99.90
13665;DHT22;6905;50.770;6.730;2024-02-21T21:49:13;9.00;99.90
13665;DHT22;6905;50.770;6.730;2024-02-21T21:51:41;9.00;99.90
13665;DHT22;6905;50.770;6.730;2024-02-21T21:54:13;9.10;99.90
13665;DHT22;6905;50.770;6.730;2024-02-21T21:57:04;9.00;99.90
13665;DHT22;6905;50.770;6.730;2024-02-21T21:59:56;9.00;99.90
13665;DHT22;6905;50.770;6.730;2024-02-21T22:27:18;9.20;99.90
13665;DHT22;6905;50.770;6.730;2024-02-21T22:30:08;9.20;99.90
13665;DHT22;6905;50.770;6.730;2024-02-21T22:32:39;9.20;99.90
13665;DHT22;6905;50.770;6.730;2024-02-21T22:35:10;9.30;99.90
13665;DHT22;6905;50.770;6.730;2024-02-21T22:37:41;9.30;99.90
13665;DHT22;6905;50.770;6.730;2024-02-21T22:40:22;9.30;99.90
13665;DHT22;6905;50.770;6.730;2024-02-21T22:45:39;9.40;99.90
13665;DHT22;6905;50.770;6.730;2024-02-21T22:48:06;9.40;99.90
13665;DHT22;6905;50.770;6.730;2024-02-21T22:50:33;9.40;99.90
13665;DHT22;6905;50.770;6.730;2024-02-21T22:53:00;9.40;99.90
13665;DHT22;6905;50.770;6.730;2024-02-21T22:55:29;9.40;99.90
13665;DHT22;6905;50.770;6.730;2024-02-21T22:57:59;9.50;99.90
13665;DHT22;6905;50.770;6.730;2024-02-21T23:00:26;9.50;99.90
13665;DHT22;6905;50.770;6.730;2024-02-21T23:03:03;9.50;99.90
13665;DHT22;6905;50.770;6.730;2024-02-21T23:05:32;9.60;99.90
13665;DHT22;6905;50.770;6.730;2024-02-21T23:08:00;9.60;99.90
13665;DHT22;6905;50.770;6.730;2024-02-21T23:10:28;9.60;99.90
13665;DHT22;6905;50.770;6.730;2024-02-21T23:12:55;9.60;99.90
13665;DHT22;6905;50.770;6.730;2024-02-21T23:15:22;9.60;99.90
13665;DHT22;6905;50.770;6.730;2024-02-21T23:17:51;9.70;99.90
13665;DHT22;6905;50.770;6.730;2024-02-21T23:20:19;9.70;99.90
13665;DHT22;6905;50.770;6.730;2024-02-21T23:22:49;9.70;99.90
13665;DHT22;6905;50.770;6.730;2024-02-21T23:25:16;9.70;99.90
13665;DHT22;6905;50.770;6.730;2024-02-21T23:27:46;9.80;99.90
13665;DHT22;6905;50.770;6.730;2024-02-21T23:30:14;9.80;99.90
13665;DHT22;6905;50.770;6.730;2024-02-21T23:32:41;9.80;99.90
13665;DHT22;6905;50.770;6.730;2024-02-21T23:35:08;9.80;99.90
13665;DHT22;6905;50.770;6.730;2024-02-21T23:37:37;9.80;99.90
13665;DHT22;6905;50.770;6.730;2024-02-21T23:40:09;9.90;99.90
13665;DHT22;6905;50.770;6.730;2024-02-21T23:42:45;9.90;99.90
13665;DHT22;6905;50.770;6.730;2024-02-21T23:45:14;9.90;99.90
13665;DHT22;6905;50.770;6.730;2024-02-21T23:47:54;9.90;99.90
13665;DHT22;6905;50.770;6.730;2024-02-21T23:50:30;9.90;99.90
13665;DHT22;6905;50.770;6.730;2024-02-21T23:52:59;9.90;99.90
13665;DHT22;6905;50.770;6.730;2024-02-21T23:55:25;9.90;99.90
13665;DHT22;6905;50.770;6.730;2024-02-21T23:57:52;9.90;99.90
